createdAt,value
2022-11-21T00:01:20.289Z,2.40
2022-11-21T00:03:23.847Z,2.40
2022-11-21T00:05:26.553Z,2.40
2022-11-21T00:07:29.122Z,2.40
2022-11-21T00:09:33.349Z,2.40
2022-11-21T00:11:35.845Z,2.40
2022-11-21T00:13:38.750Z,2.40
2022-11-21T00:15:41.225Z,2.40
2022-11-21T00:17:43.737Z,2.40
2022-11-21T00:19:46.216Z,2.40
2022-11-21T00:21:48.731Z,2.40
2022-11-21T00:23:52.238Z,2.40
2022-11-21T00:25:54.707Z,2.40
2022-11-21T00:27:57.253Z,2.40
2022-11-21T00:29:59.773Z,2.40
2022-11-21T00:32:02.258Z,2.40
2022-11-21T00:34:04.781Z,2.40
2022-11-21T00:36:07.969Z,2.30
2022-11-21T00:38:10.441Z,2.30
2022-11-21T00:40:13.193Z,2.20
2022-11-21T00:42:15.668Z,2.20
2022-11-21T00:44:18.173Z,2.20
2022-11-21T00:46:20.646Z,2.20
2022-11-21T00:48:23.153Z,2.20
2022-11-21T00:50:25.701Z,2.20
2022-11-21T00:52:28.161Z,2.20
2022-11-21T00:54:30.828Z,2.20
2022-11-21T00:56:33.320Z,2.30
2022-11-21T00:58:35.837Z,2.20
2022-11-21T01:00:38.341Z,2.20
2022-11-21T01:04:58.615Z,2.20
2022-11-21T01:07:01.092Z,2.20
2022-11-21T01:09:03.725Z,2.10
2022-11-21T01:11:06.978Z,2.10
2022-11-21T01:13:09.449Z,2.10
2022-11-21T01:15:11.963Z,2.10
2022-11-21T01:17:14.444Z,2.10
2022-11-21T01:19:16.955Z,2.10
2022-11-21T01:21:20.249Z,2.00
2022-11-21T01:23:22.733Z,2.10
2022-11-21T01:25:25.356Z,2.00
2022-11-21T01:27:27.828Z,2.00
2022-11-21T01:29:30.674Z,2.00
2022-11-21T01:31:33.165Z,2.00
2022-11-21T01:33:36.025Z,2.10
2022-11-21T01:35:38.604Z,2.00
2022-11-21T01:37:41.088Z,2.10
2022-11-21T01:39:43.561Z,2.10
2022-11-21T01:41:46.175Z,2.10
2022-11-21T01:43:49.569Z,2.10
2022-11-21T01:45:55.093Z,2.10
2022-11-21T01:47:57.604Z,2.20
2022-11-21T01:50:00.130Z,2.10
2022-11-21T01:52:04.049Z,2.10
2022-11-21T01:54:08.049Z,2.00
2022-11-21T01:56:10.678Z,2.00
2022-11-21T01:58:13.458Z,2.00
2022-11-21T02:00:18.066Z,2.00
2022-11-21T02:02:22.531Z,1.90
2022-11-21T02:04:27.033Z,1.90
2022-11-21T02:06:30.261Z,1.90
2022-11-21T02:08:32.757Z,1.90
2022-11-21T02:10:36.890Z,1.90
2022-11-21T02:12:41.083Z,1.90
2022-11-21T02:14:44.056Z,1.90
2022-11-21T02:16:47.001Z,1.90
2022-11-21T02:18:49.477Z,1.90
2022-11-21T02:20:53.353Z,1.90
2022-11-21T02:22:57.850Z,1.90
2022-11-21T02:25:01.850Z,1.90
2022-11-21T02:27:04.402Z,1.90
2022-11-21T02:29:06.882Z,2.00
2022-11-21T02:31:09.381Z,1.90
2022-11-21T02:33:12.301Z,1.90
2022-11-21T02:35:16.412Z,1.90
2022-11-21T02:37:18.936Z,1.90
2022-11-21T02:39:25.573Z,2.00
2022-11-21T02:41:29.636Z,1.90
2022-11-21T02:43:33.211Z,2.00
2022-11-21T02:45:37.536Z,2.00
2022-11-21T02:47:40.389Z,2.00
2022-11-21T02:49:44.777Z,2.00
2022-11-21T02:51:47.680Z,2.00
2022-11-21T02:53:50.205Z,2.00
2022-11-21T02:55:52.696Z,1.90
2022-11-21T02:57:57.108Z,2.00
2022-11-21T02:59:59.649Z,1.90
2022-11-21T03:02:02.178Z,1.90
2022-11-21T03:04:04.829Z,1.90
2022-11-21T03:06:07.361Z,1.90
2022-11-21T03:08:10.136Z,1.90
2022-11-21T03:10:12.968Z,1.90
2022-11-21T03:12:15.582Z,1.90
2022-11-21T03:14:18.076Z,1.90
2022-11-21T03:16:20.604Z,1.90
2022-11-21T03:18:23.074Z,1.90
2022-11-21T03:20:25.569Z,1.90
2022-11-21T03:22:28.084Z,2.00
2022-11-21T03:24:30.660Z,2.00
2022-11-21T03:26:33.186Z,2.00
2022-11-21T03:28:35.633Z,2.00
2022-11-21T03:30:39.179Z,2.00
2022-11-21T03:32:41.669Z,2.00
2022-11-21T03:34:45.369Z,2.00
2022-11-21T03:36:47.861Z,2.00
2022-11-21T03:38:50.492Z,1.90
2022-11-21T03:40:53.027Z,2.00
2022-11-21T03:42:55.545Z,2.00
2022-11-21T03:44:58.015Z,2.00
2022-11-21T03:47:00.519Z,2.00
2022-11-21T03:49:03.311Z,1.90
2022-11-21T03:51:05.812Z,1.90
2022-11-21T03:53:08.589Z,1.90
2022-11-21T03:55:11.157Z,1.90
2022-11-21T03:57:13.628Z,2.00
2022-11-21T03:59:16.908Z,2.00
2022-11-21T04:01:19.647Z,2.00
2022-11-21T04:03:22.161Z,2.00
2022-11-21T04:05:24.674Z,2.00
2022-11-21T04:07:30.555Z,2.00
2022-11-21T04:09:34.269Z,2.00
2022-11-21T04:11:39.720Z,2.00
2022-11-21T04:13:45.423Z,2.00
2022-11-21T04:15:50.574Z,1.80
2022-11-21T04:17:53.168Z,1.80
2022-11-21T04:19:55.639Z,1.90
2022-11-21T04:21:58.100Z,1.90
2022-11-21T04:24:00.744Z,1.90
2022-11-21T04:26:03.706Z,1.90
2022-11-21T04:28:06.236Z,1.90
2022-11-21T04:30:09.723Z,1.90
2022-11-21T04:32:12.227Z,1.90
2022-11-21T04:34:14.865Z,1.90
2022-11-21T04:36:17.875Z,2.00
2022-11-21T04:38:20.395Z,2.00
2022-11-21T04:40:23.868Z,2.00
2022-11-21T04:42:26.386Z,2.00
2022-11-21T04:44:29.091Z,2.00
2022-11-21T04:46:31.806Z,2.00
2022-11-21T04:48:34.324Z,2.00
2022-11-21T04:50:36.794Z,1.90
2022-11-21T04:52:39.260Z,2.00
2022-11-21T04:54:41.771Z,1.90
2022-11-21T04:56:44.279Z,2.00
2022-11-21T04:58:47.903Z,2.10
2022-11-21T05:00:50.445Z,2.00
2022-11-21T05:02:52.981Z,1.90
2022-11-21T05:04:55.464Z,1.90
2022-11-21T05:06:57.969Z,1.90
2022-11-21T05:09:00.465Z,1.90
2022-11-21T05:11:21.071Z,1.90
2022-11-21T05:13:23.917Z,1.90
2022-11-21T05:15:26.393Z,1.80
2022-11-21T05:17:28.901Z,1.70
2022-11-21T05:19:31.448Z,1.70
2022-11-21T05:21:34.016Z,1.70
2022-11-21T05:23:36.506Z,1.80
2022-11-21T05:25:38.994Z,1.80
2022-11-21T05:27:41.512Z,1.90
2022-11-21T05:29:44.001Z,2.00
2022-11-21T05:31:46.490Z,2.00
2022-11-21T05:33:48.978Z,1.90
2022-11-21T05:35:51.506Z,1.90
2022-11-21T05:37:56.291Z,1.90
2022-11-21T05:39:59.208Z,1.90
2022-11-21T05:42:03.380Z,2.00
2022-11-21T05:44:06.792Z,2.00
2022-11-21T05:46:09.550Z,1.80
2022-11-21T05:48:12.006Z,1.90
2022-11-21T05:50:14.781Z,1.80
2022-11-21T05:52:17.250Z,1.80
2022-11-21T05:54:19.801Z,1.80
2022-11-21T05:56:22.293Z,1.90
2022-11-21T05:58:24.785Z,2.00
2022-11-21T06:00:27.672Z,2.00
2022-11-21T06:02:48.286Z,2.00
2022-11-21T06:04:50.815Z,2.00
2022-11-21T06:06:53.315Z,2.00
2022-11-21T06:08:55.817Z,1.90
2022-11-21T06:10:58.311Z,1.80
2022-11-21T06:13:01.104Z,1.80
2022-11-21T06:15:03.937Z,1.90
2022-11-21T06:17:06.421Z,1.90
2022-11-21T06:19:09.029Z,1.90
2022-11-21T06:21:13.729Z,2.00
2022-11-21T06:23:16.339Z,2.00
2022-11-21T06:25:18.842Z,2.00
2022-11-21T06:27:21.351Z,2.10
2022-11-21T06:29:23.893Z,2.10
2022-11-21T06:31:26.886Z,2.10
2022-11-21T06:33:29.351Z,2.10
2022-11-21T06:35:32.244Z,2.10
2022-11-21T06:37:34.801Z,2.10
2022-11-21T06:39:37.293Z,2.10
2022-11-21T06:41:39.836Z,2.10
2022-11-21T06:43:42.682Z,2.10
2022-11-21T06:45:45.689Z,2.10
2022-11-21T06:47:48.276Z,2.10
2022-11-21T06:49:50.762Z,2.10
2022-11-21T06:51:53.369Z,2.10
2022-11-21T06:53:57.002Z,2.10
2022-11-21T06:55:59.545Z,2.10
2022-11-21T06:58:02.050Z,2.20
2022-11-21T07:00:05.325Z,2.20
2022-11-21T07:02:10.862Z,2.20
2022-11-21T07:04:13.347Z,2.10
2022-11-21T07:06:15.849Z,2.10
2022-11-21T07:08:18.337Z,2.10
2022-11-21T07:10:20.813Z,2.20
2022-11-21T07:12:41.453Z,2.10
2022-11-21T07:14:43.925Z,2.10
2022-11-21T07:16:46.459Z,2.10
2022-11-21T07:20:49.485Z,2.10
2022-11-21T07:22:54.383Z,2.10
2022-11-21T07:24:56.869Z,2.10
2022-11-21T07:26:59.514Z,2.10
2022-11-21T07:29:19.274Z,2.10
2022-11-21T07:31:21.818Z,2.00
2022-11-21T07:33:24.589Z,2.00
2022-11-21T07:35:27.298Z,2.00
2022-11-21T07:37:29.912Z,2.00
2022-11-21T07:39:32.364Z,2.10
2022-11-21T07:41:34.853Z,2.20
2022-11-21T07:43:37.601Z,2.20
2022-11-21T07:45:40.297Z,2.20
2022-11-21T07:47:43.112Z,2.20
2022-11-21T07:49:45.616Z,2.30
2022-11-21T07:51:48.110Z,2.30
2022-11-21T07:53:50.609Z,2.40
2022-11-21T07:55:53.133Z,2.40
2022-11-21T07:57:59.459Z,2.50
2022-11-21T08:00:02.161Z,2.50
2022-11-21T08:02:06.624Z,2.50
2022-11-21T08:04:09.177Z,2.50
2022-11-21T08:06:12.540Z,2.50
2022-11-21T08:08:15.254Z,2.50
2022-11-21T08:10:17.820Z,2.50
2022-11-21T08:12:20.310Z,2.50
2022-11-21T08:14:22.923Z,2.50
2022-11-21T08:16:27.238Z,2.50
2022-11-21T08:18:29.729Z,2.50
2022-11-21T08:20:32.217Z,2.40
2022-11-21T08:22:38.316Z,2.40
2022-11-21T08:24:40.856Z,2.50
2022-11-21T08:26:43.389Z,2.50
2022-11-21T08:28:46.056Z,2.60
2022-11-21T08:30:48.576Z,2.60
2022-11-21T08:32:51.208Z,2.60
2022-11-21T08:34:53.673Z,2.60
2022-11-21T08:36:56.249Z,2.60
2022-11-21T08:38:58.767Z,2.70
2022-11-21T08:41:19.370Z,2.80
2022-11-21T08:43:21.872Z,2.80
2022-11-21T08:45:24.384Z,2.80
2022-11-21T08:47:26.904Z,2.90
2022-11-21T08:49:29.988Z,2.90
2022-11-21T08:51:32.514Z,2.90
2022-11-21T08:53:35.292Z,3.00
2022-11-21T08:55:37.813Z,2.90
2022-11-21T08:57:40.340Z,2.90
2022-11-21T08:59:42.835Z,2.90
2022-11-21T09:01:45.704Z,3.00
2022-11-21T09:03:48.403Z,3.00
2022-11-21T09:05:50.972Z,3.10
2022-11-21T09:07:57.072Z,3.10
2022-11-21T09:09:59.578Z,3.20
2022-11-21T09:12:02.591Z,3.20
2022-11-21T09:14:23.002Z,3.20
2022-11-21T09:16:43.525Z,3.20
2022-11-21T09:18:47.090Z,3.30
2022-11-21T09:20:49.757Z,3.30
2022-11-21T09:22:52.594Z,3.30
2022-11-21T09:24:55.105Z,3.30
2022-11-21T09:26:57.588Z,3.30
2022-11-21T09:29:00.057Z,3.30
2022-11-21T09:31:03.095Z,3.30
2022-11-21T09:33:06.286Z,3.30
2022-11-21T09:35:09.433Z,3.40
2022-11-21T09:37:11.941Z,3.50
2022-11-21T09:39:14.473Z,3.40
2022-11-21T09:41:37.203Z,3.50
2022-11-21T09:43:42.777Z,3.50
2022-11-21T09:45:46.625Z,3.40
2022-11-21T09:47:49.718Z,3.50
2022-11-21T09:49:55.079Z,3.50
2022-11-21T09:51:59.102Z,3.40
2022-11-21T09:54:03.428Z,3.40
2022-11-21T09:56:07.252Z,3.40
2022-11-21T09:58:12.695Z,3.40
2022-11-21T10:00:16.335Z,3.40
2022-11-21T10:02:20.460Z,3.40
2022-11-21T10:04:22.920Z,4.60
2022-11-21T10:06:27.062Z,3.40
2022-11-21T10:08:31.776Z,3.50
2022-11-21T10:10:38.414Z,3.50
2022-11-21T10:12:42.749Z,3.50
2022-11-21T10:14:48.223Z,3.50
2022-11-21T10:16:52.984Z,3.50
2022-11-21T10:19:03.204Z,3.50
2022-11-21T10:21:08.980Z,3.60
2022-11-21T10:23:22.812Z,3.60
2022-11-21T10:25:27.544Z,3.60
2022-11-21T10:27:32.804Z,3.60
2022-11-21T10:29:36.927Z,3.70
2022-11-21T10:31:40.910Z,3.70
2022-11-21T10:33:43.628Z,3.70
2022-11-21T10:35:47.401Z,3.70
2022-11-21T10:37:52.294Z,3.70
2022-11-21T10:39:55.682Z,3.80
2022-11-21T10:42:00.317Z,3.80
2022-11-21T10:44:22.665Z,3.80
2022-11-21T10:46:25.157Z,3.90
2022-11-21T10:48:27.731Z,3.90
2022-11-21T10:50:37.670Z,3.90
2022-11-21T10:52:42.211Z,4.00
2022-11-21T10:55:02.596Z,4.00
2022-11-21T10:57:07.594Z,4.00
2022-11-21T10:59:14.135Z,4.00
2022-11-21T11:01:21.181Z,4.10
2022-11-21T11:03:25.153Z,4.10
2022-11-21T11:05:28.300Z,4.20
2022-11-21T11:07:30.945Z,4.20
2022-11-21T11:09:34.242Z,4.20
2022-11-21T11:11:36.742Z,4.20
2022-11-21T11:13:52.533Z,4.10
2022-11-21T11:15:57.343Z,4.20
2022-11-21T11:18:07.606Z,4.30
2022-11-21T11:20:15.405Z,4.30
2022-11-21T11:22:27.367Z,4.30
2022-11-21T11:24:29.837Z,4.30
2022-11-21T11:26:32.629Z,4.30
2022-11-21T11:28:36.321Z,4.40
2022-11-21T11:30:39.789Z,4.40
2022-11-21T11:32:42.349Z,4.40
2022-11-21T11:34:47.529Z,4.50
2022-11-21T11:36:58.318Z,4.60
2022-11-21T11:39:03.721Z,4.60
2022-11-21T11:41:09.517Z,4.70
2022-11-21T11:43:37.707Z,4.80
2022-11-21T11:46:16.246Z,4.80
2022-11-21T11:48:19.517Z,4.90
2022-11-21T11:50:23.551Z,4.90
2022-11-21T11:52:27.913Z,5.00
2022-11-21T11:54:32.209Z,5.00
2022-11-21T11:56:37.681Z,5.00
2022-11-21T11:58:42.660Z,5.10
2022-11-21T12:00:47.717Z,5.20
2022-11-21T12:02:52.222Z,5.20
2022-11-21T12:04:56.605Z,5.30
2022-11-21T12:07:59.532Z,5.30
2022-11-21T12:09:08.670Z,5.60
2022-11-21T12:11:32.809Z,5.40
2022-11-21T12:13:36.075Z,5.40
2022-11-21T12:15:49.635Z,5.60
2022-11-21T12:17:54.101Z,5.90
2022-11-21T12:19:57.384Z,6.00
2022-11-21T12:21:59.863Z,6.00
2022-11-21T12:24:03.279Z,6.10
2022-11-21T12:26:09.181Z,6.20
2022-11-21T12:28:14.083Z,6.10
2022-11-21T12:30:38.572Z,6.10
2022-11-21T12:32:47.103Z,6.10
2022-11-21T12:34:54.530Z,6.20
2022-11-21T12:36:58.904Z,6.20
2022-11-21T12:39:15.631Z,6.30
2022-11-21T12:41:39.096Z,6.30
2022-11-21T12:43:43.455Z,6.30
2022-11-21T12:45:48.513Z,6.30
2022-11-21T12:48:13.437Z,6.30
2022-11-21T12:50:35.604Z,6.30
2022-11-21T12:52:58.192Z,6.30
2022-11-21T12:55:12.459Z,6.30
2022-11-21T12:57:15.848Z,6.30
2022-11-21T12:59:19.420Z,6.40
2022-11-21T13:01:24.444Z,6.40
2022-11-21T13:03:39.783Z,6.40
2022-11-21T13:05:44.053Z,6.50
2022-11-21T13:07:47.127Z,6.50
2022-11-21T13:09:51.657Z,6.60
2022-11-21T13:11:59.210Z,6.70
2022-11-21T13:14:04.132Z,6.70
2022-11-21T13:16:08.568Z,6.70
2022-11-21T13:18:16.499Z,6.70
2022-11-21T13:20:22.147Z,6.70
2022-11-21T13:22:49.114Z,6.70
2022-11-21T13:24:58.432Z,6.70
2022-11-21T13:27:00.904Z,6.70
2022-11-21T13:29:08.767Z,6.70
2022-11-21T13:31:27.713Z,6.70
2022-11-21T13:33:46.071Z,6.70
2022-11-21T13:35:56.352Z,6.70
2022-11-21T13:38:02.868Z,6.80
2022-11-21T13:40:24.505Z,6.80
2022-11-21T13:42:58.209Z,6.80
2022-11-21T13:44:49.553Z,6.80
2022-11-21T13:46:58.400Z,6.80
2022-11-21T13:49:04.271Z,6.80
2022-11-21T13:51:17.079Z,6.80
2022-11-21T13:53:27.591Z,6.90
2022-11-21T13:55:37.529Z,6.90
2022-11-21T13:57:44.850Z,6.80
2022-11-21T13:59:54.677Z,6.80
2022-11-21T14:02:04.180Z,6.80
2022-11-21T14:04:17.229Z,6.80
2022-11-21T14:06:29.592Z,6.80
2022-11-21T14:08:29.433Z,6.80
2022-11-21T14:10:33.318Z,6.80
2022-11-21T14:12:44.074Z,6.80
2022-11-21T14:14:43.825Z,6.80
2022-11-21T14:16:48.122Z,6.80
2022-11-21T14:18:51.128Z,6.80
2022-11-21T14:20:56.112Z,6.80
2022-11-21T14:23:00.604Z,6.80
2022-11-21T14:25:06.948Z,6.80
2022-11-21T14:27:11.549Z,6.80
2022-11-21T14:29:17.774Z,6.80
2022-11-21T14:31:20.497Z,6.80
2022-11-21T14:33:27.089Z,6.80
2022-11-21T14:35:29.929Z,6.80
2022-11-21T14:37:32.443Z,6.80
2022-11-21T14:39:40.760Z,6.70
2022-11-21T14:41:42.961Z,6.70
2022-11-21T14:43:45.536Z,6.70
2022-11-21T14:45:49.636Z,6.70
2022-11-21T14:47:52.836Z,6.70
2022-11-21T14:49:58.710Z,6.70
2022-11-21T14:52:05.521Z,6.60
2022-11-21T14:54:12.354Z,6.60
2022-11-21T14:56:23.495Z,6.50
2022-11-21T14:58:26.369Z,6.50
2022-11-21T15:00:58.715Z,6.50
2022-11-21T15:02:34.753Z,6.40
2022-11-21T15:04:37.400Z,6.40
2022-11-21T15:06:41.486Z,6.40
2022-11-21T15:09:29.024Z,6.40
2022-11-21T15:10:48.337Z,6.30
2022-11-21T15:12:53.089Z,6.30
2022-11-21T15:14:57.385Z,6.30
2022-11-21T15:17:00.835Z,6.30
2022-11-21T15:19:08.445Z,6.20
2022-11-21T15:21:12.693Z,6.20
2022-11-21T15:23:20.846Z,6.10
2022-11-21T15:25:24.226Z,6.10
2022-11-21T15:27:30.988Z,6.00
2022-11-21T15:29:33.473Z,6.00
2022-11-21T15:31:35.989Z,5.90
2022-11-21T15:34:12.594Z,5.90
2022-11-21T15:35:58.433Z,5.80
2022-11-21T15:38:00.906Z,5.70
2022-11-21T15:40:03.780Z,5.60
2022-11-21T15:42:24.025Z,5.50
2022-11-21T15:44:26.568Z,5.50
2022-11-21T15:46:29.933Z,5.50
2022-11-21T15:48:32.406Z,5.50
2022-11-21T15:50:36.030Z,5.50
2022-11-21T15:52:44.102Z,5.50
2022-11-21T15:54:47.324Z,5.50
2022-11-21T15:56:50.162Z,5.40
2022-11-21T15:58:52.862Z,5.40
2022-11-21T16:00:55.438Z,5.40
2022-11-21T16:02:57.986Z,5.30
2022-11-21T16:05:00.628Z,5.10
2022-11-21T16:07:03.181Z,5.10
2022-11-21T16:09:06.013Z,5.10
2022-11-21T16:11:11.597Z,5.10
2022-11-21T16:13:14.254Z,5.00
2022-11-21T16:15:16.965Z,4.90
2022-11-21T16:17:19.506Z,4.80
2022-11-21T16:19:21.991Z,4.70
2022-11-21T16:21:24.878Z,4.70
2022-11-21T16:23:27.369Z,4.60
2022-11-21T16:25:29.832Z,4.60
2022-11-21T16:27:32.442Z,4.60
2022-11-21T16:29:34.939Z,4.70
2022-11-21T16:31:37.445Z,4.70
2022-11-21T16:33:39.968Z,4.70
2022-11-21T16:35:42.463Z,4.60
2022-11-21T16:37:44.937Z,4.60
2022-11-21T16:39:49.256Z,4.70
2022-11-21T16:41:51.748Z,4.60
2022-11-21T16:43:55.204Z,4.60
2022-11-21T16:45:59.964Z,4.60
2022-11-21T16:48:02.561Z,4.60
2022-11-21T16:50:05.958Z,4.60
2022-11-21T16:52:08.432Z,4.60
2022-11-21T16:54:10.905Z,4.60
2022-11-21T16:56:14.714Z,4.60
2022-11-21T16:58:17.415Z,4.60
2022-11-21T17:00:20.328Z,4.60
2022-11-21T17:02:22.856Z,4.60
2022-11-21T17:04:25.444Z,4.60
2022-11-21T17:06:29.581Z,4.50
2022-11-21T17:08:32.165Z,4.50
2022-11-21T17:10:34.710Z,4.60
2022-11-21T17:12:38.306Z,4.60
2022-11-21T17:14:40.772Z,4.50
2022-11-21T17:16:43.273Z,4.50
2022-11-21T17:18:46.005Z,4.30
2022-11-21T17:20:48.477Z,4.60
2022-11-21T17:22:50.934Z,4.60
2022-11-21T17:24:53.664Z,4.60
2022-11-21T17:26:57.979Z,4.60
2022-11-21T17:29:02.857Z,4.70
2022-11-21T17:31:06.448Z,4.70
2022-11-21T17:33:08.939Z,4.70
2022-11-21T17:35:11.564Z,4.70
2022-11-21T17:37:14.272Z,4.80
2022-11-21T17:39:17.677Z,4.70
2022-11-21T17:41:20.935Z,4.70
2022-11-21T17:43:23.449Z,4.70
2022-11-21T17:45:25.926Z,4.80
2022-11-21T17:47:28.604Z,4.80
2022-11-21T17:49:32.857Z,4.80
2022-11-21T17:51:37.253Z,4.70
2022-11-21T17:53:41.264Z,4.70
2022-11-21T17:55:43.731Z,4.70
2022-11-21T17:57:46.979Z,4.70
2022-11-21T17:59:49.505Z,4.70
2022-11-21T18:01:52.173Z,4.60
2022-11-21T18:03:55.648Z,4.60
2022-11-21T18:06:01.584Z,4.70
2022-11-21T18:08:04.213Z,4.70
2022-11-21T18:10:34.980Z,4.70
2022-11-21T18:12:11.848Z,4.80
2022-11-21T18:14:14.374Z,4.70
2022-11-21T18:16:17.781Z,4.70
2022-11-21T18:18:20.480Z,4.70
2022-11-21T18:20:23.549Z,4.70
2022-11-21T18:22:29.449Z,4.80
2022-11-21T18:24:30.652Z,4.80
2022-11-21T18:26:34.288Z,4.80
2022-11-21T18:28:36.984Z,4.80
2022-11-21T18:30:39.460Z,4.80
2022-11-21T18:32:42.649Z,4.80
2022-11-21T18:34:45.165Z,4.70
2022-11-21T18:36:47.657Z,4.70
2022-11-21T18:38:54.977Z,4.70
2022-11-21T18:40:54.541Z,4.70
2022-11-21T18:42:57.025Z,4.80
2022-11-21T18:44:59.506Z,4.80
2022-11-21T18:47:02.010Z,4.80
2022-11-21T18:49:07.230Z,4.70
2022-11-21T18:51:10.310Z,4.70
2022-11-21T18:53:12.959Z,4.80
2022-11-21T18:55:15.514Z,4.80
2022-11-21T18:57:18.018Z,4.90
2022-11-21T18:59:20.597Z,4.90
2022-11-21T19:01:24.002Z,4.80
2022-11-21T19:03:26.552Z,4.90
2022-11-21T19:05:29.054Z,4.80
2022-11-21T19:07:31.615Z,4.90
2022-11-21T19:09:34.634Z,4.80
2022-11-21T19:11:37.483Z,4.80
2022-11-21T19:13:40.150Z,4.80
2022-11-21T19:15:42.689Z,4.70
2022-11-21T19:17:45.150Z,4.80
2022-11-21T19:19:48.238Z,4.70
2022-11-21T19:21:50.983Z,4.50
2022-11-21T19:23:54.605Z,4.40
2022-11-21T19:26:00.240Z,4.40
2022-11-21T19:28:02.750Z,4.30
2022-11-21T19:30:05.982Z,4.30
2022-11-21T19:32:08.785Z,4.30
2022-11-21T19:34:11.359Z,4.30
2022-11-21T19:36:14.766Z,4.30
2022-11-21T19:38:17.355Z,4.40
2022-11-21T19:40:19.997Z,4.40
2022-11-21T19:42:22.523Z,4.40
2022-11-21T19:44:25.070Z,4.40
2022-11-21T19:46:30.485Z,4.40
2022-11-21T19:48:33.322Z,4.40
2022-11-21T19:50:35.854Z,4.40
2022-11-21T19:52:38.365Z,4.70
2022-11-21T19:54:40.886Z,5.00
2022-11-21T19:56:43.396Z,5.20
2022-11-21T19:58:45.999Z,5.30
2022-11-21T20:00:48.520Z,5.30
2022-11-21T20:02:51.039Z,5.20
2022-11-21T20:04:54.217Z,5.20
2022-11-21T20:06:56.910Z,5.10
2022-11-21T20:09:00.690Z,5.10
2022-11-21T20:11:11.121Z,5.00
2022-11-21T20:13:13.866Z,5.00
2022-11-21T20:15:16.481Z,5.10
2022-11-21T20:17:19.010Z,5.00
2022-11-21T20:19:23.258Z,5.10
2022-11-21T20:21:26.018Z,5.10
2022-11-21T20:23:28.514Z,5.30
2022-11-21T20:25:31.073Z,5.30
2022-11-21T20:27:33.544Z,5.40
2022-11-21T20:29:37.133Z,5.40
2022-11-21T20:31:39.908Z,5.50
2022-11-21T20:33:42.927Z,5.60
2022-11-21T20:35:45.443Z,5.60
2022-11-21T20:37:47.927Z,5.80
2022-11-21T20:39:50.428Z,5.80
2022-11-21T20:41:53.008Z,5.80
2022-11-21T20:44:44.663Z,5.90
2022-11-21T20:46:10.022Z,6.10
2022-11-21T20:48:11.124Z,6.20
2022-11-21T20:50:25.740Z,6.20
2022-11-21T20:53:49.657Z,6.20
2022-11-21T20:54:21.465Z,6.20
2022-11-21T20:56:23.981Z,6.20
2022-11-21T20:58:28.036Z,6.20
2022-11-21T21:00:30.604Z,6.20
2022-11-21T21:02:33.136Z,6.20
2022-11-21T21:04:35.625Z,6.30
2022-11-21T21:06:38.952Z,6.30
2022-11-21T21:08:41.466Z,6.30
2022-11-21T21:11:05.006Z,6.40
2022-11-21T21:12:48.867Z,6.40
2022-11-21T21:14:51.524Z,6.40
2022-11-21T21:16:54.012Z,6.40
2022-11-21T21:18:56.699Z,6.40
2022-11-21T21:21:16.439Z,6.40
2022-11-21T21:23:07.868Z,6.40
2022-11-21T21:25:10.496Z,6.50
2022-11-21T21:27:13.020Z,6.50
2022-11-21T21:29:16.998Z,6.50
2022-11-21T21:31:20.400Z,6.70
2022-11-21T21:33:22.913Z,6.50
2022-11-21T21:35:25.408Z,6.60
2022-11-21T21:37:27.916Z,6.60
2022-11-21T21:39:30.408Z,6.60
2022-11-21T21:41:32.945Z,6.60
2022-11-21T21:43:35.421Z,6.60
2022-11-21T21:45:38.054Z,6.60
2022-11-21T21:47:42.345Z,6.60
2022-11-21T21:49:44.852Z,6.60
2022-11-21T21:51:47.360Z,6.50
2022-11-21T21:53:50.951Z,6.50
2022-11-21T21:55:53.417Z,6.50
2022-11-21T21:57:56.225Z,6.40
2022-11-21T21:59:58.692Z,6.40
2022-11-21T22:02:01.415Z,6.40
2022-11-21T22:04:04.932Z,6.40
2022-11-21T22:06:08.238Z,6.40
2022-11-21T22:08:10.720Z,6.40
2022-11-21T22:10:13.523Z,6.50
2022-11-21T22:12:15.975Z,6.50
2022-11-21T22:14:18.559Z,6.50
2022-11-21T22:16:21.443Z,6.40
2022-11-21T22:18:23.936Z,6.40
2022-11-21T22:20:26.379Z,6.40
2022-11-21T22:22:28.969Z,6.40
2022-11-21T22:24:31.444Z,6.30
2022-11-21T22:26:33.920Z,6.30
2022-11-21T22:28:36.440Z,6.20
2022-11-21T22:30:38.946Z,6.20
2022-11-21T22:32:41.417Z,6.10
2022-11-21T22:34:44.583Z,6.00
2022-11-21T22:36:47.160Z,6.00
2022-11-21T22:38:51.475Z,5.90
2022-11-21T22:40:54.065Z,5.80
2022-11-21T22:42:56.585Z,5.80
2022-11-21T22:44:59.205Z,5.80
2022-11-21T22:47:01.716Z,5.80
2022-11-21T22:49:04.213Z,5.70
2022-11-21T22:51:07.243Z,5.80
2022-11-21T22:53:09.818Z,5.70
2022-11-21T22:55:12.333Z,5.70
2022-11-21T22:57:14.832Z,5.70
2022-11-21T22:59:17.300Z,5.80
2022-11-21T23:01:20.569Z,6.10
2022-11-21T23:03:23.124Z,6.50
2022-11-21T23:05:26.124Z,6.70
2022-11-21T23:07:28.809Z,6.70
2022-11-21T23:09:31.693Z,6.80
2022-11-21T23:11:40.456Z,7.00
2022-11-21T23:13:39.646Z,7.10
2022-11-21T23:15:42.131Z,7.10
2022-11-21T23:17:49.579Z,7.10
2022-11-21T23:19:49.081Z,7.10
2022-11-21T23:21:51.549Z,7.20
2022-11-21T23:23:54.079Z,7.20
2022-11-21T23:25:56.566Z,7.20
2022-11-21T23:27:59.040Z,7.20
2022-11-21T23:30:01.549Z,7.20
2022-11-21T23:32:04.254Z,7.20
2022-11-21T23:34:08.570Z,7.20
2022-11-21T23:36:11.057Z,7.10
2022-11-21T23:38:14.443Z,7.10
2022-11-21T23:40:17.135Z,7.20
2022-11-21T23:42:19.618Z,7.20
2022-11-21T23:44:22.102Z,7.20
2022-11-21T23:46:24.636Z,7.20
2022-11-21T23:48:27.803Z,7.20
2022-11-21T23:50:30.293Z,7.20
2022-11-21T23:52:32.770Z,7.20
2022-11-21T23:54:35.286Z,7.30
2022-11-21T23:56:37.961Z,7.20
2022-11-21T23:58:40.472Z,7.20
